Tennessee, Illinois
Current Conditions -  °F | °C
As of 3:35 PM on Monday 24 Nov 2014 (Local Time) from KMQB Reporting Station
Overcast Overcast  
Wind Chill: 18°   Ceiling: 2200
Heat Index: 30°   Visibility: 10mi
Dew Point: 27°   Wind: 21mph
Humidity: 86%   Direction: 270°W
Pressure: 29.74"   Gusts: 29mph
Location:  40.41°N, 90.84°W
Report Text: KMQB 242135Z AUTO 27018G25KT 10SM OVC022 M01/M03 A2974 RMK AO2 T10091030
Loading
Personal Weather Stations






























Interactive Weather Map New forecast layout! Learn more

10-Day Weather Forecast

Advertisements
Track Severe Weather on mobile